sensor_id;sensor_type;location;lat;lon;timestamp;P1;durP1;ratioP1;P2;durP2;ratioP2
71387;SDS011;59201;59.902;10.520;2022-11-15T00:01:38;2.43;;;0.60;;
71387;SDS011;59201;59.902;10.520;2022-11-15T00:04:04;2.75;;;0.80;;
71387;SDS011;59201;59.902;10.520;2022-11-15T00:06:30;2.88;;;0.80;;
71387;SDS011;59201;59.902;10.520;2022-11-15T00:09:00;2.25;;;0.70;;
71387;SDS011;59201;59.902;10.520;2022-11-15T00:11:26;3.08;;;0.80;;
71387;SDS011;59201;59.902;10.520;2022-11-15T00:13:55;2.70;;;0.80;;
71387;SDS011;59201;59.902;10.520;2022-11-15T00:16:22;3.83;;;0.90;;
71387;SDS011;59201;59.902;10.520;2022-11-15T00:18:48;2.35;;;0.70;;
71387;SDS011;59201;59.902;10.520;2022-11-15T00:21:14;2.75;;;0.80;;
71387;SDS011;59201;59.902;10.520;2022-11-15T00:23:41;2.85;;;0.80;;
71387;SDS011;59201;59.902;10.520;2022-11-15T00:26:08;3.70;;;0.90;;
71387;SDS011;59201;59.902;10.520;2022-11-15T00:28:36;3.40;;;0.80;;
71387;SDS011;59201;59.902;10.520;2022-11-15T00:31:03;3.53;;;0.90;;
71387;SDS011;59201;59.902;10.520;2022-11-15T00:33:29;3.50;;;0.82;;
71387;SDS011;59201;59.902;10.520;2022-11-15T00:35:59;4.65;;;0.77;;
71387;SDS011;59201;59.902;10.520;2022-11-15T00:38:29;2.63;;;0.70;;
71387;SDS011;59201;59.902;10.520;2022-11-15T00:40:55;2.83;;;0.77;;
71387;SDS011;59201;59.902;10.520;2022-11-15T00:43:21;2.47;;;0.60;;
71387;SDS011;59201;59.902;10.520;2022-11-15T00:45:47;2.65;;;0.65;;
71387;SDS011;59201;59.902;10.520;2022-11-15T00:48:13;1.98;;;0.60;;
71387;SDS011;59201;59.902;10.520;2022-11-15T00:50:39;3.10;;;0.60;;
71387;SDS011;59201;59.902;10.520;2022-11-15T00:53:06;1.95;;;0.50;;
71387;SDS011;59201;59.902;10.520;2022-11-15T00:55:32;2.22;;;0.80;;
71387;SDS011;59201;59.902;10.520;2022-11-15T00:57:58;2.28;;;0.70;;
71387;SDS011;59201;59.902;10.520;2022-11-15T01:00:24;2.67;;;0.80;;
71387;SDS011;59201;59.902;10.520;2022-11-15T01:02:50;1.70;;;0.60;;
71387;SDS011;59201;59.902;10.520;2022-11-15T01:05:16;2.55;;;0.63;;
71387;SDS011;59201;59.902;10.520;2022-11-15T01:07:42;1.90;;;0.70;;
71387;SDS011;59201;59.902;10.520;2022-11-15T01:10:08;1.60;;;0.60;;
71387;SDS011;59201;59.902;10.520;2022-11-15T01:12:34;2.50;;;0.75;;
71387;SDS011;59201;59.902;10.520;2022-11-15T01:15:01;3.83;;;0.70;;
71387;SDS011;59201;59.902;10.520;2022-11-15T01:17:27;1.88;;;0.68;;
71387;SDS011;59201;59.902;10.520;2022-11-15T01:19:53;2.72;;;0.70;;
71387;SDS011;59201;59.902;10.520;2022-11-15T01:22:19;1.92;;;0.60;;
71387;SDS011;59201;59.902;10.520;2022-11-15T01:24:45;2.53;;;0.68;;
71387;SDS011;59201;59.902;10.520;2022-11-15T01:27:11;2.47;;;0.70;;
71387;SDS011;59201;59.902;10.520;2022-11-15T01:29:37;2.17;;;0.70;;
71387;SDS011;59201;59.902;10.520;2022-11-15T01:32:03;1.83;;;0.50;;
71387;SDS011;59201;59.902;10.520;2022-11-15T01:34:29;2.05;;;0.60;;
71387;SDS011;59201;59.902;10.520;2022-11-15T01:36:55;3.30;;;1.00;;
71387;SDS011;59201;59.902;10.520;2022-11-15T01:39:21;2.70;;;0.70;;
71387;SDS011;59201;59.902;10.520;2022-11-15T01:41:47;2.67;;;0.70;;
71387;SDS011;59201;59.902;10.520;2022-11-15T01:46:54;3.92;;;0.80;;
71387;SDS011;59201;59.902;10.520;2022-11-15T01:49:21;3.20;;;1.08;;
71387;SDS011;59201;59.902;10.520;2022-11-15T01:51:47;3.20;;;0.80;;
71387;SDS011;59201;59.902;10.520;2022-11-15T01:54:14;2.20;;;0.68;;
71387;SDS011;59201;59.902;10.520;2022-11-15T01:56:43;3.42;;;0.90;;
71387;SDS011;59201;59.902;10.520;2022-11-15T01:59:10;3.08;;;0.90;;
71387;SDS011;59201;59.902;10.520;2022-11-15T02:01:36;3.25;;;0.80;;
71387;SDS011;59201;59.902;10.520;2022-11-15T02:04:13;2.63;;;0.70;;
71387;SDS011;59201;59.902;10.520;2022-11-15T02:06:40;3.15;;;0.80;;
71387;SDS011;59201;59.902;10.520;2022-11-15T02:09:06;2.67;;;0.70;;
71387;SDS011;59201;59.902;10.520;2022-11-15T02:11:32;3.67;;;0.95;;
71387;SDS011;59201;59.902;10.520;2022-11-15T02:13:59;3.08;;;0.70;;
71387;SDS011;59201;59.902;10.520;2022-11-15T02:28:51;1.30;;;0.50;;
71387;SDS011;59201;59.902;10.520;2022-11-15T02:34:11;3.22;;;0.80;;
71387;SDS011;59201;59.902;10.520;2022-11-15T02:36:49;1.63;;;0.50;;
71387;SDS011;59201;59.902;10.520;2022-11-15T02:44:54;2.92;;;0.68;;
71387;SDS011;59201;59.902;10.520;2022-11-15T02:47:21;2.60;;;0.70;;
71387;SDS011;59201;59.902;10.520;2022-11-15T02:49:50;2.72;;;0.55;;
71387;SDS011;59201;59.902;10.520;2022-11-15T02:52:17;2.20;;;0.60;;
71387;SDS011;59201;59.902;10.520;2022-11-15T02:54:52;2.20;;;0.60;;
71387;SDS011;59201;59.902;10.520;2022-11-15T02:57:18;2.67;;;0.63;;
71387;SDS011;59201;59.902;10.520;2022-11-15T03:03:16;1.80;;;0.50;;
71387;SDS011;59201;59.902;10.520;2022-11-15T03:08:01;2.73;;;0.70;;
71387;SDS011;59201;59.902;10.520;2022-11-15T03:13:03;2.08;;;0.70;;
71387;SDS011;59201;59.902;10.520;2022-11-15T03:15:36;2.47;;;0.70;;
71387;SDS011;59201;59.902;10.520;2022-11-15T03:18:16;4.35;;;0.90;;
71387;SDS011;59201;59.902;10.520;2022-11-15T03:20:45;3.63;;;0.93;;
71387;SDS011;59201;59.902;10.520;2022-11-15T03:23:12;4.32;;;1.13;;
71387;SDS011;59201;59.902;10.520;2022-11-15T03:25:42;3.25;;;0.82;;
71387;SDS011;59201;59.902;10.520;2022-11-15T03:28:09;2.83;;;0.88;;
71387;SDS011;59201;59.902;10.520;2022-11-15T03:30:38;3.13;;;0.80;;
71387;SDS011;59201;59.902;10.520;2022-11-15T03:33:04;3.17;;;0.80;;
71387;SDS011;59201;59.902;10.520;2022-11-15T03:35:32;2.55;;;0.70;;
71387;SDS011;59201;59.902;10.520;2022-11-15T03:38:17;2.85;;;1.08;;
71387;SDS011;59201;59.902;10.520;2022-11-15T03:40:47;3.50;;;0.68;;
71387;SDS011;59201;59.902;10.520;2022-11-15T03:43:15;3.38;;;0.80;;
71387;SDS011;59201;59.902;10.520;2022-11-15T03:46:05;2.97;;;0.70;;
71387;SDS011;59201;59.902;10.520;2022-11-15T03:48:34;2.00;;;0.60;;
71387;SDS011;59201;59.902;10.520;2022-11-15T03:51:02;4.93;;;0.88;;
71387;SDS011;59201;59.902;10.520;2022-11-15T03:53:28;2.08;;;0.68;;
71387;SDS011;59201;59.902;10.520;2022-11-15T03:55:55;4.45;;;0.90;;
71387;SDS011;59201;59.902;10.520;2022-11-15T03:58:21;2.23;;;0.70;;
71387;SDS011;59201;59.902;10.520;2022-11-15T04:00:47;2.22;;;0.60;;
71387;SDS011;59201;59.902;10.520;2022-11-15T04:03:13;2.67;;;0.75;;
71387;SDS011;59201;59.902;10.520;2022-11-15T04:05:39;2.70;;;0.93;;
71387;SDS011;59201;59.902;10.520;2022-11-15T04:08:05;3.10;;;0.88;;
71387;SDS011;59201;59.902;10.520;2022-11-15T04:10:31;3.23;;;0.70;;
71387;SDS011;59201;59.902;10.520;2022-11-15T04:12:57;2.10;;;0.70;;
71387;SDS011;59201;59.902;10.520;2022-11-15T04:15:23;2.97;;;0.77;;
71387;SDS011;59201;59.902;10.520;2022-11-15T04:17:50;2.72;;;0.70;;
71387;SDS011;59201;59.902;10.520;2022-11-15T04:23:03;2.27;;;0.60;;
71387;SDS011;59201;59.902;10.520;2022-11-15T04:25:52;2.05;;;0.55;;
71387;SDS011;59201;59.902;10.520;2022-11-15T04:28:18;2.65;;;0.70;;
71387;SDS011;59201;59.902;10.520;2022-11-15T04:30:44;2.67;;;0.70;;
71387;SDS011;59201;59.902;10.520;2022-11-15T04:33:10;1.35;;;0.60;;
71387;SDS011;59201;59.902;10.520;2022-11-15T04:35:37;1.67;;;0.60;;
71387;SDS011;59201;59.902;10.520;2022-11-15T04:38:03;2.17;;;0.70;;
71387;SDS011;59201;59.902;10.520;2022-11-15T04:40:30;2.60;;;0.73;;
71387;SDS011;59201;59.902;10.520;2022-11-15T04:42:56;3.33;;;0.70;;
71387;SDS011;59201;59.902;10.520;2022-11-15T04:45:22;4.28;;;0.88;;
71387;SDS011;59201;59.902;10.520;2022-11-15T04:47:48;3.53;;;0.90;;
71387;SDS011;59201;59.902;10.520;2022-11-15T04:50:14;2.42;;;0.60;;
71387;SDS011;59201;59.902;10.520;2022-11-15T04:52:41;2.72;;;0.70;;
71387;SDS011;59201;59.902;10.520;2022-11-15T04:55:08;2.38;;;0.70;;
71387;SDS011;59201;59.902;10.520;2022-11-15T04:57:34;2.97;;;0.70;;
71387;SDS011;59201;59.902;10.520;2022-11-15T05:00:01;2.53;;;0.70;;
71387;SDS011;59201;59.902;10.520;2022-11-15T05:02:27;3.35;;;0.73;;
71387;SDS011;59201;59.902;10.520;2022-11-15T05:05:13;4.85;;;0.80;;
71387;SDS011;59201;59.902;10.520;2022-11-15T05:07:39;2.53;;;0.80;;
71387;SDS011;59201;59.902;10.520;2022-11-15T05:10:06;3.47;;;0.70;;
71387;SDS011;59201;59.902;10.520;2022-11-15T05:12:32;2.20;;;0.63;;
71387;SDS011;59201;59.902;10.520;2022-11-15T05:14:58;2.88;;;0.80;;
71387;SDS011;59201;59.902;10.520;2022-11-15T05:17:24;2.78;;;0.70;;
71387;SDS011;59201;59.902;10.520;2022-11-15T05:19:50;2.53;;;0.70;;
71387;SDS011;59201;59.902;10.520;2022-11-15T05:22:17;2.15;;;0.70;;
71387;SDS011;59201;59.902;10.520;2022-11-15T05:24:43;3.43;;;0.70;;
71387;SDS011;59201;59.902;10.520;2022-11-15T05:27:09;3.40;;;1.15;;
71387;SDS011;59201;59.902;10.520;2022-11-15T05:29:35;4.10;;;1.00;;
71387;SDS011;59201;59.902;10.520;2022-11-15T05:32:02;2.85;;;0.88;;
71387;SDS011;59201;59.902;10.520;2022-11-15T05:34:29;5.95;;;1.85;;
71387;SDS011;59201;59.902;10.520;2022-11-15T05:36:55;4.57;;;1.10;;
71387;SDS011;59201;59.902;10.520;2022-11-15T05:39:21;4.20;;;1.10;;
71387;SDS011;59201;59.902;10.520;2022-11-15T05:42:01;5.20;;;1.00;;
71387;SDS011;59201;59.902;10.520;2022-11-15T05:44:28;4.78;;;0.90;;
71387;SDS011;59201;59.902;10.520;2022-11-15T05:46:54;4.35;;;1.45;;
71387;SDS011;59201;59.902;10.520;2022-11-15T05:49:21;4.93;;;1.03;;
71387;SDS011;59201;59.902;10.520;2022-11-15T05:51:49;4.22;;;1.30;;
71387;SDS011;59201;59.902;10.520;2022-11-15T05:54:17;6.45;;;1.30;;
71387;SDS011;59201;59.902;10.520;2022-11-15T05:56:43;4.50;;;1.10;;
71387;SDS011;59201;59.902;10.520;2022-11-15T05:59:09;6.03;;;1.23;;
71387;SDS011;59201;59.902;10.520;2022-11-15T06:01:36;4.27;;;1.00;;
71387;SDS011;59201;59.902;10.520;2022-11-15T06:04:03;4.80;;;1.25;;
71387;SDS011;59201;59.902;10.520;2022-11-15T06:06:29;4.38;;;1.10;;
71387;SDS011;59201;59.902;10.520;2022-11-15T06:08:55;6.30;;;0.90;;
71387;SDS011;59201;59.902;10.520;2022-11-15T06:11:21;3.92;;;1.00;;
71387;SDS011;59201;59.902;10.520;2022-11-15T06:13:47;5.33;;;0.90;;
71387;SDS011;59201;59.902;10.520;2022-11-15T06:16:13;4.10;;;0.90;;
71387;SDS011;59201;59.902;10.520;2022-11-15T06:18:40;4.57;;;1.02;;
71387;SDS011;59201;59.902;10.520;2022-11-15T06:21:06;4.93;;;1.00;;
71387;SDS011;59201;59.902;10.520;2022-11-15T06:23:33;4.13;;;1.02;;
71387;SDS011;59201;59.902;10.520;2022-11-15T06:25:59;6.70;;;1.30;;
71387;SDS011;59201;59.902;10.520;2022-11-15T06:28:29;6.03;;;1.10;;
71387;SDS011;59201;59.902;10.520;2022-11-15T06:30:55;4.75;;;0.93;;
71387;SDS011;59201;59.902;10.520;2022-11-15T06:33:22;5.47;;;1.13;;
71387;SDS011;59201;59.902;10.520;2022-11-15T06:35:48;6.80;;;1.00;;
71387;SDS011;59201;59.902;10.520;2022-11-15T06:38:17;4.23;;;1.00;;
71387;SDS011;59201;59.902;10.520;2022-11-15T06:40:43;4.40;;;1.20;;
71387;SDS011;59201;59.902;10.520;2022-11-15T06:43:09;7.43;;;1.20;;
71387;SDS011;59201;59.902;10.520;2022-11-15T06:45:35;6.20;;;1.20;;
71387;SDS011;59201;59.902;10.520;2022-11-15T06:48:02;7.72;;;1.30;;
71387;SDS011;59201;59.902;10.520;2022-11-15T06:50:28;6.47;;;1.07;;
71387;SDS011;59201;59.902;10.520;2022-11-15T06:52:54;7.25;;;1.30;;
71387;SDS011;59201;59.902;10.520;2022-11-15T06:55:20;6.00;;;1.25;;
71387;SDS011;59201;59.902;10.520;2022-11-15T06:57:50;5.13;;;1.20;;
71387;SDS011;59201;59.902;10.520;2022-11-15T07:00:17;8.02;;;1.85;;
71387;SDS011;59201;59.902;10.520;2022-11-15T07:02:43;10.83;;;1.67;;
71387;SDS011;59201;59.902;10.520;2022-11-15T07:05:09;7.97;;;1.60;;
71387;SDS011;59201;59.902;10.520;2022-11-15T07:07:36;7.43;;;1.55;;
71387;SDS011;59201;59.902;10.520;2022-11-15T07:10:02;5.40;;;1.20;;
71387;SDS011;59201;59.902;10.520;2022-11-15T07:12:28;4.20;;;1.30;;
71387;SDS011;59201;59.902;10.520;2022-11-15T07:14:54;4.07;;;1.00;;
71387;SDS011;59201;59.902;10.520;2022-11-15T07:17:20;3.75;;;0.95;;
71387;SDS011;59201;59.902;10.520;2022-11-15T07:19:46;5.28;;;1.17;;
71387;SDS011;59201;59.902;10.520;2022-11-15T07:22:12;4.20;;;1.15;;
71387;SDS011;59201;59.902;10.520;2022-11-15T07:24:38;5.22;;;1.30;;
71387;SDS011;59201;59.902;10.520;2022-11-15T07:27:04;4.50;;;1.10;;
71387;SDS011;59201;59.902;10.520;2022-11-15T07:29:31;4.53;;;0.95;;
71387;SDS011;59201;59.902;10.520;2022-11-15T07:31:57;4.68;;;1.08;;
71387;SDS011;59201;59.902;10.520;2022-11-15T07:34:23;6.57;;;1.20;;
71387;SDS011;59201;59.902;10.520;2022-11-15T07:36:50;2.92;;;0.77;;
71387;SDS011;59201;59.902;10.520;2022-11-15T07:39:16;4.67;;;0.90;;
71387;SDS011;59201;59.902;10.520;2022-11-15T07:41:42;3.83;;;0.80;;
71387;SDS011;59201;59.902;10.520;2022-11-15T07:44:08;3.63;;;0.88;;
71387;SDS011;59201;59.902;10.520;2022-11-15T07:46:34;2.95;;;0.85;;
71387;SDS011;59201;59.902;10.520;2022-11-15T07:49:00;2.97;;;0.85;;
71387;SDS011;59201;59.902;10.520;2022-11-15T07:51:26;4.37;;;0.90;;
71387;SDS011;59201;59.902;10.520;2022-11-15T07:53:52;4.53;;;0.70;;
71387;SDS011;59201;59.902;10.520;2022-11-15T07:56:18;2.70;;;0.75;;
71387;SDS011;59201;59.902;10.520;2022-11-15T07:58:45;2.88;;;0.88;;
71387;SDS011;59201;59.902;10.520;2022-11-15T08:01:12;2.65;;;0.75;;
71387;SDS011;59201;59.902;10.520;2022-11-15T08:03:38;1.70;;;0.60;;
71387;SDS011;59201;59.902;10.520;2022-11-15T08:06:04;1.83;;;0.60;;
71387;SDS011;59201;59.902;10.520;2022-11-15T08:08:30;2.90;;;0.70;;
71387;SDS011;59201;59.902;10.520;2022-11-15T08:10:59;2.72;;;0.80;;
71387;SDS011;59201;59.902;10.520;2022-11-15T08:13:25;3.45;;;0.80;;
71387;SDS011;59201;59.902;10.520;2022-11-15T08:15:51;2.67;;;0.70;;
71387;SDS011;59201;59.902;10.520;2022-11-15T08:18:20;2.35;;;0.70;;
71387;SDS011;59201;59.902;10.520;2022-11-15T08:20:46;2.85;;;0.80;;
71387;SDS011;59201;59.902;10.520;2022-11-15T08:23:12;2.75;;;0.80;;
71387;SDS011;59201;59.902;10.520;2022-11-15T08:25:38;1.52;;;0.57;;
71387;SDS011;59201;59.902;10.520;2022-11-15T08:28:05;3.27;;;0.83;;
71387;SDS011;59201;59.902;10.520;2022-11-15T08:30:35;1.75;;;0.60;;
71387;SDS011;59201;59.902;10.520;2022-11-15T08:33:02;5.78;;;0.90;;
71387;SDS011;59201;59.902;10.520;2022-11-15T08:35:28;2.45;;;0.70;;
71387;SDS011;59201;59.902;10.520;2022-11-15T08:37:54;4.18;;;0.70;;
71387;SDS011;59201;59.902;10.520;2022-11-15T08:40:21;2.03;;;0.70;;
71387;SDS011;59201;59.902;10.520;2022-11-15T08:42:47;2.83;;;0.75;;
71387;SDS011;59201;59.902;10.520;2022-11-15T08:45:13;3.45;;;1.00;;
71387;SDS011;59201;59.902;10.520;2022-11-15T08:47:39;2.97;;;0.73;;
71387;SDS011;59201;59.902;10.520;2022-11-15T08:50:06;2.00;;;0.73;;
71387;SDS011;59201;59.902;10.520;2022-11-15T08:52:32;2.43;;;0.70;;
71387;SDS011;59201;59.902;10.520;2022-11-15T08:54:58;3.45;;;0.80;;
71387;SDS011;59201;59.902;10.520;2022-11-15T08:57:25;2.47;;;0.70;;
71387;SDS011;59201;59.902;10.520;2022-11-15T08:59:54;4.25;;;0.90;;
71387;SDS011;59201;59.902;10.520;2022-11-15T09:02:20;2.85;;;0.80;;
71387;SDS011;59201;59.902;10.520;2022-11-15T09:04:49;2.10;;;0.70;;
71387;SDS011;59201;59.902;10.520;2022-11-15T09:07:15;1.77;;;0.60;;
71387;SDS011;59201;59.902;10.520;2022-11-15T09:09:41;2.60;;;0.80;;
71387;SDS011;59201;59.902;10.520;2022-11-15T09:12:08;3.38;;;0.90;;
71387;SDS011;59201;59.902;10.520;2022-11-15T09:14:34;5.22;;;1.48;;
71387;SDS011;59201;59.902;10.520;2022-11-15T09:17:00;1.77;;;0.70;;
71387;SDS011;59201;59.902;10.520;2022-11-15T09:19:26;2.55;;;0.73;;
71387;SDS011;59201;59.902;10.520;2022-11-15T09:21:52;3.38;;;0.90;;
71387;SDS011;59201;59.902;10.520;2022-11-15T09:24:19;3.83;;;0.80;;
71387;SDS011;59201;59.902;10.520;2022-11-15T09:26:45;4.25;;;1.00;;
71387;SDS011;59201;59.902;10.520;2022-11-15T09:29:12;2.70;;;0.80;;
71387;SDS011;59201;59.902;10.520;2022-11-15T09:31:38;3.67;;;1.00;;
71387;SDS011;59201;59.902;10.520;2022-11-15T09:34:04;3.80;;;0.90;;
71387;SDS011;59201;59.902;10.520;2022-11-15T09:36:30;2.85;;;0.80;;
71387;SDS011;59201;59.902;10.520;2022-11-15T09:38:57;5.55;;;1.10;;
71387;SDS011;59201;59.902;10.520;2022-11-15T09:46:30;2.20;;;0.70;;
71387;SDS011;59201;59.902;10.520;2022-11-15T09:48:59;2.75;;;0.77;;
71387;SDS011;59201;59.902;10.520;2022-11-15T09:54:10;3.87;;;1.00;;
71387;SDS011;59201;59.902;10.520;2022-11-15T09:56:39;3.05;;;0.85;;
71387;SDS011;59201;59.902;10.520;2022-11-15T10:04:13;3.55;;;0.90;;
71387;SDS011;59201;59.902;10.520;2022-11-15T10:06:40;3.17;;;0.87;;
71387;SDS011;59201;59.902;10.520;2022-11-15T10:09:12;3.10;;;0.90;;
71387;SDS011;59201;59.902;10.520;2022-11-15T10:11:39;2.13;;;0.70;;
71387;SDS011;59201;59.902;10.520;2022-11-15T10:14:13;2.50;;;0.73;;
71387;SDS011;59201;59.902;10.520;2022-11-15T10:19:27;2.63;;;0.70;;
71387;SDS011;59201;59.902;10.520;2022-11-15T10:24:41;2.50;;;0.70;;
71387;SDS011;59201;59.902;10.520;2022-11-15T10:27:12;3.95;;;0.85;;
71387;SDS011;59201;59.902;10.520;2022-11-15T10:29:46;2.38;;;0.70;;
71387;SDS011;59201;59.902;10.520;2022-11-15T10:32:13;3.27;;;0.80;;
71387;SDS011;59201;59.902;10.520;2022-11-15T10:34:39;1.80;;;0.50;;
71387;SDS011;59201;59.902;10.520;2022-11-15T10:37:05;3.05;;;0.95;;
71387;SDS011;59201;59.902;10.520;2022-11-15T10:39:31;2.13;;;0.80;;
71387;SDS011;59201;59.902;10.520;2022-11-15T10:42:00;2.30;;;0.70;;
71387;SDS011;59201;59.902;10.520;2022-11-15T10:44:43;1.90;;;0.60;;
71387;SDS011;59201;59.902;10.520;2022-11-15T10:47:23;1.92;;;0.60;;
71387;SDS011;59201;59.902;10.520;2022-11-15T10:49:54;2.83;;;0.90;;
71387;SDS011;59201;59.902;10.520;2022-11-15T10:52:20;2.25;;;0.70;;
71387;SDS011;59201;59.902;10.520;2022-11-15T10:55:30;2.65;;;0.70;;
71387;SDS011;59201;59.902;10.520;2022-11-15T10:57:37;2.60;;;0.63;;
71387;SDS011;59201;59.902;10.520;2022-11-15T11:00:22;1.88;;;0.60;;
71387;SDS011;59201;59.902;10.520;2022-11-15T11:08:00;2.28;;;0.65;;
71387;SDS011;59201;59.902;10.520;2022-11-15T11:10:27;2.70;;;0.73;;
71387;SDS011;59201;59.902;10.520;2022-11-15T11:12:53;1.05;;;0.50;;
71387;SDS011;59201;59.902;10.520;2022-11-15T11:15:19;2.90;;;0.70;;
71387;SDS011;59201;59.902;10.520;2022-11-15T11:22:58;3.10;;;0.70;;
71387;SDS011;59201;59.902;10.520;2022-11-15T11:25:30;2.75;;;0.70;;
71387;SDS011;59201;59.902;10.520;2022-11-15T18:15:40;4.03;;;1.00;;
71387;SDS011;59201;59.902;10.520;2022-11-15T23:13:29;2.90;;;0.77;;
71387;SDS011;59201;59.902;10.520;2022-11-15T23:16:03;3.03;;;0.70;;
71387;SDS011;59201;59.902;10.520;2022-11-15T23:21:18;2.50;;;0.80;;
71387;SDS011;59201;59.902;10.520;2022-11-15T23:24:04;1.70;;;0.60;;
71387;SDS011;59201;59.902;10.520;2022-11-15T23:26:31;3.00;;;0.70;;
71387;SDS011;59201;59.902;10.520;2022-11-15T23:28:57;2.75;;;0.70;;
71387;SDS011;59201;59.902;10.520;2022-11-15T23:31:23;3.65;;;0.70;;
71387;SDS011;59201;59.902;10.520;2022-11-15T23:34:07;2.97;;;0.80;;
71387;SDS011;59201;59.902;10.520;2022-11-15T23:36:34;2.25;;;0.70;;
71387;SDS011;59201;59.902;10.520;2022-11-15T23:39:00;3.67;;;0.87;;
71387;SDS011;59201;59.902;10.520;2022-11-15T23:41:27;2.13;;;0.70;;
71387;SDS011;59201;59.902;10.520;2022-11-15T23:43:53;1.30;;;0.60;;
71387;SDS011;59201;59.902;10.520;2022-11-15T23:46:19;3.28;;;0.70;;
71387;SDS011;59201;59.902;10.520;2022-11-15T23:48:45;1.52;;;0.60;;
71387;SDS011;59201;59.902;10.520;2022-11-15T23:51:11;2.83;;;0.60;;
71387;SDS011;59201;59.902;10.520;2022-11-15T23:53:37;3.10;;;0.73;;
71387;SDS011;59201;59.902;10.520;2022-11-15T23:56:04;2.30;;;0.70;;
71387;SDS011;59201;59.902;10.520;2022-11-15T23:58:30;2.33;;;0.60;;
